createdAt,value
2023-01-19T00:01:14.613Z,7.13
2023-01-19T00:03:43.267Z,7.32
2023-01-19T00:06:12.060Z,7.60
2023-01-19T00:08:40.538Z,7.80
2023-01-19T00:11:08.861Z,7.65
2023-01-19T00:13:38.118Z,7.22
2023-01-19T00:16:08.745Z,8.52
2023-01-19T00:18:36.935Z,7.70
2023-01-19T00:21:05.548Z,9.10
2023-01-19T00:23:33.749Z,8.15
2023-01-19T00:26:01.946Z,7.75
2023-01-19T00:28:30.164Z,7.53
2023-01-19T00:30:58.433Z,8.63
2023-01-19T00:33:51.642Z,7.78
2023-01-19T00:36:20.650Z,7.38
2023-01-19T00:38:49.284Z,8.13
2023-01-19T00:41:17.892Z,9.07
2023-01-19T00:43:45.554Z,8.23
2023-01-19T00:46:15.612Z,9.48
2023-01-19T00:48:49.975Z,8.27
2023-01-19T00:51:18.388Z,8.80
2023-01-19T00:57:36.830Z,8.43
2023-01-19T01:00:07.243Z,7.68
2023-01-19T01:02:36.794Z,8.43
2023-01-19T01:05:08.579Z,8.52
2023-01-19T01:07:40.796Z,7.95
2023-01-19T01:10:11.744Z,7.90
2023-01-19T01:12:41.305Z,8.38
2023-01-19T01:15:23.948Z,7.93
2023-01-19T01:17:53.096Z,8.32
2023-01-19T01:20:27.145Z,8.65
2023-01-19T01:22:57.804Z,7.50
2023-01-19T01:25:28.589Z,7.93
2023-01-19T01:27:56.866Z,7.53
2023-01-19T01:30:25.433Z,8.00
2023-01-19T01:32:53.683Z,7.78
2023-01-19T01:35:23.373Z,8.60
2023-01-19T01:37:51.701Z,7.85
2023-01-19T01:40:20.815Z,7.75
2023-01-19T01:42:49.021Z,7.97
2023-01-19T01:45:33.872Z,7.65
2023-01-19T01:48:09.732Z,8.32
2023-01-19T01:51:06.803Z,7.47
2023-01-19T01:53:37.571Z,8.00
2023-01-19T01:56:11.328Z,8.32
2023-01-19T01:58:41.171Z,7.43
2023-01-19T02:01:29.145Z,7.47
2023-01-19T02:03:58.747Z,7.05
2023-01-19T02:06:28.642Z,8.07
2023-01-19T02:09:19.740Z,8.15
2023-01-19T02:12:06.225Z,8.35
2023-01-19T02:14:37.411Z,7.53
2023-01-19T02:17:05.889Z,7.57
2023-01-19T02:19:40.375Z,7.65
2023-01-19T02:22:17.834Z,6.60
2023-01-19T02:24:49.955Z,8.05
2023-01-19T02:27:18.993Z,7.68
2023-01-19T02:29:47.455Z,7.60
2023-01-19T02:32:15.908Z,7.25
2023-01-19T02:34:44.284Z,7.60
2023-01-19T02:37:15.768Z,8.30
2023-01-19T02:39:51.277Z,7.65
2023-01-19T02:42:23.851Z,7.50
2023-01-19T02:44:55.849Z,8.32
2023-01-19T02:47:24.527Z,7.68
2023-01-19T02:49:57.550Z,6.85
2023-01-19T02:52:26.770Z,7.95
2023-01-19T02:55:05.962Z,7.82
2023-01-19T02:57:49.910Z,8.68
2023-01-19T03:00:34.158Z,8.43
2023-01-19T03:03:23.837Z,8.40
2023-01-19T03:05:59.109Z,7.60
2023-01-19T03:08:44.923Z,8.63
2023-01-19T03:11:16.076Z,7.55
2023-01-19T03:13:50.062Z,7.22
2023-01-19T03:16:23.030Z,8.57
2023-01-19T03:18:55.977Z,7.38
2023-01-19T03:21:31.435Z,9.43
2023-01-19T03:24:04.300Z,8.13
2023-01-19T03:26:40.168Z,7.43
2023-01-19T03:29:11.646Z,6.63
2023-01-19T03:31:41.531Z,7.80
2023-01-19T03:34:13.353Z,7.50
2023-01-19T03:36:46.035Z,7.65
2023-01-19T03:39:20.347Z,7.72
2023-01-19T03:41:53.390Z,8.20
2023-01-19T03:44:21.751Z,7.93
2023-01-19T03:46:50.430Z,8.25
2023-01-19T03:49:19.512Z,8.18
2023-01-19T03:51:48.262Z,8.52
2023-01-19T03:54:16.453Z,7.50
2023-01-19T03:56:44.817Z,8.45
2023-01-19T03:59:17.532Z,8.25
2023-01-19T04:01:46.048Z,7.78
2023-01-19T04:04:15.552Z,8.55
2023-01-19T04:06:44.503Z,8.73
2023-01-19T04:09:12.851Z,7.85
2023-01-19T04:11:41.197Z,8.73
2023-01-19T04:14:09.417Z,8.23
2023-01-19T04:16:39.081Z,8.43
2023-01-19T04:19:07.368Z,7.45
2023-01-19T04:21:35.896Z,8.93
2023-01-19T04:24:04.401Z,8.48
2023-01-19T04:26:32.827Z,9.10
2023-01-19T04:29:01.133Z,7.72
2023-01-19T04:31:29.930Z,7.93
2023-01-19T04:33:59.973Z,8.20
2023-01-19T04:36:28.498Z,8.25
2023-01-19T04:38:56.720Z,9.43
2023-01-19T04:41:25.082Z,8.27
2023-01-19T04:43:53.401Z,8.68
2023-01-19T04:46:21.560Z,7.97
2023-01-19T04:48:49.844Z,8.00
2023-01-19T04:51:19.462Z,7.32
2023-01-19T04:53:47.794Z,7.93
2023-01-19T04:56:16.182Z,8.90
2023-01-19T04:58:44.446Z,9.43
2023-01-19T05:01:12.850Z,28.10
2023-01-19T05:03:41.328Z,13.20
2023-01-19T05:06:09.811Z,14.07
2023-01-19T05:08:39.569Z,9.45
2023-01-19T05:11:08.120Z,10.43
2023-01-19T05:13:36.502Z,9.38
2023-01-19T05:16:06.230Z,8.90
2023-01-19T05:18:37.072Z,9.25
2023-01-19T05:21:06.312Z,9.30
2023-01-19T05:23:34.956Z,8.40
2023-01-19T05:26:06.816Z,8.90
2023-01-19T05:28:35.915Z,8.18
2023-01-19T05:31:04.559Z,8.75
2023-01-19T05:33:33.033Z,8.65
2023-01-19T05:36:01.513Z,8.70
2023-01-19T05:38:35.401Z,9.40
2023-01-19T05:41:05.820Z,7.90
2023-01-19T05:43:34.220Z,9.55
2023-01-19T05:46:03.899Z,9.30
2023-01-19T05:48:32.382Z,9.15
2023-01-19T05:51:01.587Z,8.50
2023-01-19T05:53:30.374Z,9.25
2023-01-19T05:56:02.253Z,8.30
2023-01-19T05:58:34.329Z,8.73
2023-01-19T06:01:05.809Z,8.73
2023-01-19T06:03:35.464Z,8.65
2023-01-19T06:06:04.976Z,8.40
2023-01-19T06:08:33.615Z,8.80
2023-01-19T06:11:02.004Z,8.85
2023-01-19T06:13:31.750Z,7.90
2023-01-19T06:16:00.596Z,9.18
2023-01-19T06:18:29.563Z,8.52
2023-01-19T06:20:59.595Z,8.38
2023-01-19T06:23:28.387Z,8.98
2023-01-19T06:25:56.895Z,8.43
2023-01-19T06:28:25.711Z,8.27
2023-01-19T06:30:57.463Z,8.05
2023-01-19T06:33:27.840Z,9.05
2023-01-19T06:35:57.189Z,8.75
2023-01-19T06:38:25.512Z,9.15
2023-01-19T06:40:55.555Z,9.00
2023-01-19T06:43:24.145Z,8.45
2023-01-19T06:45:53.478Z,8.45
2023-01-19T06:48:23.802Z,8.20
2023-01-19T06:50:52.436Z,7.97
2023-01-19T06:53:22.288Z,8.55
2023-01-19T06:55:50.774Z,8.50
2023-01-19T06:58:19.499Z,8.10
2023-01-19T07:00:48.912Z,28.92
2023-01-19T07:03:21.743Z,18.15
2023-01-19T07:05:54.948Z,9.07
2023-01-19T07:08:23.560Z,8.27
2023-01-19T07:11:26.030Z,8.00
2023-01-19T07:13:41.621Z,8.95
2023-01-19T07:16:12.442Z,8.25
2023-01-19T07:18:41.958Z,7.78
2023-01-19T07:21:11.553Z,7.00
2023-01-19T07:23:39.884Z,8.23
2023-01-19T07:26:08.174Z,7.80
2023-01-19T07:28:37.046Z,7.72
2023-01-19T07:31:05.759Z,8.32
2023-01-19T07:33:34.267Z,8.63
2023-01-19T07:36:02.671Z,8.13
2023-01-19T07:38:32.600Z,7.40
2023-01-19T07:41:05.515Z,8.43
2023-01-19T07:43:34.438Z,8.15
2023-01-19T07:46:07.024Z,8.40
2023-01-19T07:48:35.573Z,6.90
2023-01-19T07:51:10.424Z,6.95
2023-01-19T07:53:42.375Z,7.35
2023-01-19T07:56:11.296Z,7.03
2023-01-19T07:58:39.832Z,6.60
2023-01-19T08:01:09.495Z,7.05
2023-01-19T08:03:38.515Z,6.30
2023-01-19T08:06:08.126Z,6.78
2023-01-19T08:08:36.526Z,6.00
2023-01-19T08:11:06.637Z,6.53
2023-01-19T08:13:35.053Z,6.40
2023-01-19T08:16:03.457Z,6.43
2023-01-19T08:18:31.767Z,5.85
2023-01-19T08:21:00.455Z,6.35
2023-01-19T08:23:29.373Z,5.68
2023-01-19T08:25:57.636Z,6.03
2023-01-19T08:28:27.486Z,5.90
2023-01-19T08:30:56.091Z,6.10
2023-01-19T08:33:25.600Z,5.88
2023-01-19T08:35:55.260Z,5.55
2023-01-19T08:38:24.724Z,5.72
2023-01-19T08:40:53.349Z,5.55
2023-01-19T08:43:21.658Z,6.50
2023-01-19T08:45:53.913Z,6.18
2023-01-19T08:48:25.090Z,5.90
2023-01-19T08:50:54.541Z,6.20
2023-01-19T08:53:24.131Z,6.78
2023-01-19T08:55:55.844Z,6.38
2023-01-19T08:58:24.969Z,5.90
2023-01-19T09:00:54.954Z,6.00
2023-01-19T09:03:23.840Z,5.65
2023-01-19T09:05:52.303Z,5.78
2023-01-19T09:08:22.160Z,5.35
2023-01-19T09:10:52.785Z,5.93
2023-01-19T09:13:21.932Z,6.25
2023-01-19T09:15:51.049Z,6.75
2023-01-19T09:18:23.147Z,5.40
2023-01-19T09:20:52.380Z,5.38
2023-01-19T09:23:22.539Z,5.35
2023-01-19T09:25:57.751Z,5.82
2023-01-19T09:28:26.811Z,6.63
2023-01-19T09:30:55.337Z,6.28
2023-01-19T09:33:25.753Z,5.65
2023-01-19T09:35:54.019Z,6.00
2023-01-19T09:38:23.923Z,6.07
2023-01-19T09:40:56.070Z,5.22
2023-01-19T09:43:37.946Z,5.60
2023-01-19T09:46:13.682Z,5.05
2023-01-19T09:48:48.587Z,4.82
2023-01-19T09:51:20.968Z,4.90
2023-01-19T09:54:07.682Z,5.30
2023-01-19T09:56:36.202Z,5.18
2023-01-19T09:59:22.367Z,4.85
2023-01-19T10:02:19.882Z,5.38
2023-01-19T10:05:00.339Z,5.10
2023-01-19T10:07:53.385Z,5.00
2023-01-19T10:10:25.751Z,4.80
2023-01-19T10:13:10.572Z,5.13
2023-01-19T10:15:50.367Z,4.90
2023-01-19T10:18:25.239Z,4.30
2023-01-19T10:23:49.265Z,3.47
2023-01-19T10:26:22.158Z,4.63
2023-01-19T10:28:54.804Z,4.70
2023-01-19T10:31:25.907Z,4.68
2023-01-19T10:33:55.133Z,4.95
2023-01-19T10:36:30.852Z,5.63
2023-01-19T10:38:59.665Z,6.10
2023-01-19T10:41:42.824Z,5.68
2023-01-19T10:44:12.417Z,5.20
2023-01-19T10:46:45.615Z,4.90
2023-01-19T10:49:28.808Z,4.82
2023-01-19T10:52:00.301Z,5.25
2023-01-19T10:54:31.809Z,4.57
2023-01-19T10:57:03.468Z,4.80
2023-01-19T10:59:38.403Z,4.53
2023-01-19T11:02:20.203Z,4.72
2023-01-19T11:04:52.871Z,5.22
2023-01-19T11:07:25.267Z,4.57
2023-01-19T11:10:21.888Z,5.85
2023-01-19T11:13:02.368Z,8.27
2023-01-19T11:15:35.614Z,5.10
2023-01-19T11:18:06.328Z,4.88
2023-01-19T11:20:52.344Z,4.88
2023-01-19T11:23:28.209Z,4.85
2023-01-19T11:26:01.223Z,4.60
2023-01-19T11:28:35.594Z,4.80
2023-01-19T11:31:18.454Z,4.47
2023-01-19T11:33:53.203Z,4.40
2023-01-19T11:36:23.891Z,4.78
2023-01-19T11:38:56.744Z,4.30
2023-01-19T11:41:30.123Z,4.50
2023-01-19T11:44:03.232Z,4.38
2023-01-19T11:46:35.252Z,4.22
2023-01-19T11:49:06.788Z,4.78
2023-01-19T11:51:42.905Z,4.40
2023-01-19T11:54:23.636Z,4.63
2023-01-19T11:56:53.187Z,4.55
2023-01-19T11:59:24.847Z,4.65
2023-01-19T12:01:57.916Z,4.47
2023-01-19T12:04:30.733Z,4.53
2023-01-19T12:07:07.554Z,4.03
2023-01-19T12:09:43.635Z,4.05
2023-01-19T12:12:19.309Z,4.70
2023-01-19T12:14:58.495Z,4.03
2023-01-19T12:17:29.980Z,4.25
2023-01-19T12:20:07.516Z,5.13
2023-01-19T12:22:49.498Z,4.25
2023-01-19T12:25:23.969Z,4.38
2023-01-19T12:27:54.333Z,4.57
2023-01-19T12:30:26.058Z,4.07
2023-01-19T12:33:39.767Z,4.30
2023-01-19T12:36:14.141Z,4.10
2023-01-19T12:38:47.731Z,3.08
2023-01-19T12:41:27.657Z,3.42
2023-01-19T12:44:23.662Z,3.45
2023-01-19T12:46:55.964Z,3.60
2023-01-19T12:49:33.624Z,3.28
2023-01-19T12:52:28.010Z,3.00
2023-01-19T12:55:16.843Z,3.15
2023-01-19T12:57:55.163Z,3.38
2023-01-19T13:00:37.597Z,3.42
2023-01-19T13:03:48.163Z,3.20
2023-01-19T13:06:17.780Z,4.68
2023-01-19T13:09:00.990Z,4.40
2023-01-19T13:11:34.363Z,4.50
2023-01-19T13:14:38.911Z,5.00
2023-01-19T13:17:28.536Z,4.88
2023-01-19T13:20:27.324Z,5.22
2023-01-19T13:23:21.907Z,5.38
2023-01-19T13:26:02.817Z,5.00
2023-01-19T13:28:43.556Z,5.45
2023-01-19T13:31:13.445Z,5.43
2023-01-19T13:33:50.368Z,5.75
2023-01-19T13:36:28.657Z,4.90
2023-01-19T13:39:01.488Z,5.40
2023-01-19T13:41:32.684Z,5.03
2023-01-19T13:44:04.668Z,4.85
2023-01-19T13:46:34.319Z,5.25
2023-01-19T13:49:10.860Z,6.72
2023-01-19T13:51:39.402Z,5.03
2023-01-19T13:54:17.332Z,5.53
2023-01-19T13:56:50.188Z,5.15
2023-01-19T13:59:18.664Z,4.88
2023-01-19T14:01:49.263Z,5.20
2023-01-19T14:04:36.189Z,5.05
2023-01-19T14:07:13.954Z,5.20
2023-01-19T14:09:43.752Z,4.25
2023-01-19T14:12:15.015Z,4.47
2023-01-19T14:14:44.268Z,4.43
2023-01-19T14:17:25.592Z,4.78
2023-01-19T14:19:56.342Z,4.95
2023-01-19T14:22:40.876Z,5.13
2023-01-19T14:25:34.389Z,3.70
2023-01-19T14:28:39.485Z,8.60
2023-01-19T14:31:22.304Z,5.78
2023-01-19T14:33:53.045Z,5.00
2023-01-19T14:36:30.146Z,4.90
2023-01-19T14:39:01.919Z,4.90
2023-01-19T14:41:49.613Z,4.10
2023-01-19T14:44:26.006Z,5.88
2023-01-19T14:46:55.235Z,4.90
2023-01-19T14:49:34.763Z,8.40
2023-01-19T14:52:07.788Z,8.10
2023-01-19T14:54:40.322Z,7.22
2023-01-19T14:57:13.807Z,5.88
2023-01-19T14:59:42.318Z,6.40
2023-01-19T15:02:10.533Z,6.47
2023-01-19T15:04:38.905Z,6.00
2023-01-19T15:07:08.265Z,8.65
2023-01-19T15:09:36.703Z,7.57
2023-01-19T15:12:05.464Z,7.55
2023-01-19T15:14:35.361Z,6.97
2023-01-19T15:17:03.582Z,6.40
2023-01-19T15:19:31.888Z,6.53
2023-01-19T15:22:00.351Z,5.65
2023-01-19T15:24:28.598Z,6.30
2023-01-19T15:27:01.553Z,6.95
2023-01-19T15:29:32.120Z,8.02
2023-01-19T15:32:02.305Z,6.82
2023-01-19T15:34:31.651Z,6.30
2023-01-19T15:37:00.554Z,6.40
2023-01-19T15:39:28.842Z,9.82
2023-01-19T15:41:57.056Z,10.88
2023-01-19T15:44:25.372Z,7.20
2023-01-19T15:46:54.738Z,7.43
2023-01-19T15:49:24.482Z,5.65
2023-01-19T15:51:53.070Z,6.05
2023-01-19T15:54:21.408Z,5.63
2023-01-19T15:56:49.757Z,5.97
2023-01-19T15:59:18.164Z,6.10
2023-01-19T16:01:46.770Z,7.80
2023-01-19T16:04:17.822Z,6.00
2023-01-19T16:06:47.611Z,5.47
2023-01-19T16:09:18.495Z,7.85
2023-01-19T16:11:47.094Z,7.32
2023-01-19T16:14:17.408Z,5.85
2023-01-19T16:16:46.144Z,6.22
2023-01-19T16:19:16.569Z,6.28
2023-01-19T16:21:44.907Z,6.20
2023-01-19T16:24:14.705Z,5.50
2023-01-19T16:26:43.105Z,5.40
2023-01-19T16:29:11.844Z,5.85
2023-01-19T16:31:42.211Z,6.80
2023-01-19T16:34:11.398Z,6.10
2023-01-19T16:36:42.647Z,6.38
2023-01-19T16:39:15.228Z,7.00
2023-01-19T16:41:45.194Z,6.18
2023-01-19T16:44:14.898Z,6.53
2023-01-19T16:46:45.475Z,7.28
2023-01-19T16:49:16.464Z,7.40
2023-01-19T16:51:45.060Z,7.18
2023-01-19T16:54:16.842Z,6.82
2023-01-19T16:56:45.469Z,6.47
2023-01-19T16:59:15.979Z,7.00
2023-01-19T17:01:46.148Z,6.80
2023-01-19T17:04:15.263Z,6.63
2023-01-19T17:06:43.851Z,6.95
2023-01-19T17:09:12.285Z,6.97
2023-01-19T17:11:42.067Z,6.07
2023-01-19T17:14:14.301Z,6.25
2023-01-19T17:16:43.441Z,6.10
2023-01-19T17:19:16.401Z,13.00
2023-01-19T17:21:46.976Z,14.32
2023-01-19T17:24:15.714Z,8.20
2023-01-19T17:26:48.452Z,7.43
2023-01-19T17:29:17.634Z,7.68
2023-01-19T17:31:46.900Z,8.00
2023-01-19T17:34:15.245Z,8.05
2023-01-19T17:36:43.612Z,8.23
2023-01-19T17:39:16.748Z,7.38
2023-01-19T17:41:47.517Z,7.85
2023-01-19T17:44:17.208Z,7.72
2023-01-19T17:46:45.481Z,7.75
2023-01-19T17:49:13.793Z,8.35
2023-01-19T17:51:42.085Z,7.57
2023-01-19T17:54:10.941Z,8.30
2023-01-19T17:56:41.218Z,9.43
2023-01-19T17:59:10.923Z,7.50
2023-01-19T18:01:40.397Z,8.40
2023-01-19T18:04:10.253Z,8.05
2023-01-19T18:06:39.284Z,8.35
2023-01-19T18:09:08.239Z,8.25
2023-01-19T18:11:37.254Z,7.63
2023-01-19T18:14:06.639Z,8.40
2023-01-19T18:16:37.007Z,10.15
2023-01-19T18:19:05.423Z,9.40
2023-01-19T18:21:33.761Z,9.77
2023-01-19T18:24:04.282Z,8.75
2023-01-19T18:26:35.067Z,9.07
2023-01-19T18:29:03.966Z,10.15
2023-01-19T18:31:32.515Z,14.70
2023-01-19T18:34:02.255Z,15.40
2023-01-19T18:36:32.131Z,9.65
2023-01-19T18:39:00.548Z,8.95
2023-01-19T18:41:29.917Z,8.80
2023-01-19T18:43:59.585Z,9.95
2023-01-19T18:46:28.266Z,9.00
2023-01-19T18:48:56.489Z,10.45
2023-01-19T18:51:26.452Z,9.57
2023-01-19T18:53:54.913Z,9.77
2023-01-19T18:56:23.200Z,9.15
2023-01-19T18:58:52.234Z,9.15
2023-01-19T19:01:24.930Z,9.68
2023-01-19T19:03:53.755Z,9.65
2023-01-19T19:06:22.810Z,9.98
2023-01-19T19:08:53.577Z,9.93
2023-01-19T19:11:24.010Z,9.77
2023-01-19T19:13:58.254Z,9.75
2023-01-19T19:16:27.168Z,8.82
2023-01-19T19:18:55.592Z,10.02
2023-01-19T19:21:25.247Z,9.18
2023-01-19T19:23:57.081Z,9.38
2023-01-19T19:26:27.894Z,8.80
2023-01-19T19:28:56.354Z,8.70
2023-01-19T19:31:26.944Z,8.88
2023-01-19T19:33:56.977Z,12.35
2023-01-19T19:36:27.136Z,15.80
2023-01-19T19:38:56.965Z,15.52
2023-01-19T19:41:27.830Z,15.30
2023-01-19T19:43:56.790Z,14.85
2023-01-19T19:46:26.797Z,13.30
2023-01-19T19:48:55.373Z,11.43
2023-01-19T19:51:27.075Z,10.95
2023-01-19T19:53:59.617Z,11.35
2023-01-19T19:56:31.146Z,11.45
2023-01-19T19:59:00.963Z,12.00
2023-01-19T20:01:33.468Z,11.60
2023-01-19T20:04:07.979Z,11.38
2023-01-19T20:06:38.728Z,14.15
2023-01-19T20:09:12.729Z,12.73
2023-01-19T20:11:42.677Z,10.75
2023-01-19T20:14:14.140Z,10.85
2023-01-19T20:16:42.422Z,10.23
2023-01-19T20:19:11.809Z,10.73
2023-01-19T20:21:42.831Z,10.57
2023-01-19T20:24:16.080Z,10.55
2023-01-19T20:26:48.504Z,9.82
2023-01-19T20:29:17.064Z,17.27
2023-01-19T20:31:48.248Z,22.02
2023-01-19T20:34:19.577Z,16.48
2023-01-19T20:36:50.149Z,11.48
2023-01-19T20:39:20.934Z,10.68
2023-01-19T20:41:51.372Z,10.23
2023-01-19T20:44:22.494Z,11.13
2023-01-19T20:46:51.534Z,10.43
2023-01-19T20:49:20.179Z,10.48
2023-01-19T20:51:50.069Z,11.43
2023-01-19T20:54:23.146Z,10.32
2023-01-19T20:56:51.530Z,9.88
2023-01-19T20:59:20.428Z,10.48
2023-01-19T21:01:49.720Z,9.82
2023-01-19T21:04:18.567Z,10.00
2023-01-19T21:06:46.855Z,9.95
2023-01-19T21:09:15.185Z,9.80
2023-01-19T21:11:44.833Z,10.35
2023-01-19T21:14:13.160Z,10.48
2023-01-19T21:16:42.493Z,9.40
2023-01-19T21:19:11.928Z,9.15
2023-01-19T21:21:40.501Z,9.88
2023-01-19T21:24:11.168Z,11.07
2023-01-19T21:26:41.537Z,10.32
2023-01-19T21:29:13.977Z,10.02
2023-01-19T21:31:42.888Z,10.00
2023-01-19T21:36:39.718Z,9.80
2023-01-19T21:39:09.021Z,8.60
2023-01-19T21:41:39.762Z,9.68
2023-01-19T21:44:08.010Z,9.13
2023-01-19T21:46:37.756Z,11.18
2023-01-19T21:49:08.227Z,11.77
2023-01-19T21:51:38.159Z,9.68
2023-01-19T21:54:07.744Z,10.20
2023-01-19T21:56:37.800Z,9.50
2023-01-19T21:59:06.426Z,10.57
2023-01-19T22:01:37.190Z,9.65
2023-01-19T22:04:06.077Z,9.10
2023-01-19T22:06:34.755Z,9.50
2023-01-19T22:09:03.216Z,10.00
2023-01-19T22:11:32.406Z,9.52
2023-01-19T22:14:01.015Z,9.18
2023-01-19T22:16:30.561Z,9.90
2023-01-19T22:19:02.630Z,12.35
2023-01-19T22:21:34.956Z,20.05
2023-01-19T22:24:05.662Z,12.38
2023-01-19T22:26:40.142Z,10.30
2023-01-19T22:29:11.101Z,10.23
2023-01-19T22:31:41.436Z,11.63
2023-01-19T22:34:11.756Z,9.63
2023-01-19T22:36:40.232Z,10.40
2023-01-19T22:39:10.918Z,11.10
2023-01-19T22:41:41.828Z,10.40
2023-01-19T22:44:14.263Z,9.98
2023-01-19T22:46:43.175Z,9.35
2023-01-19T22:49:16.096Z,10.30
2023-01-19T22:51:45.550Z,9.90
2023-01-19T22:54:14.459Z,9.50
2023-01-19T22:56:43.172Z,8.65
2023-01-19T22:59:11.416Z,9.38
2023-01-19T23:01:42.029Z,9.63
2023-01-19T23:04:15.762Z,10.05
2023-01-19T23:06:46.845Z,10.00
2023-01-19T23:09:16.249Z,10.05
2023-01-19T23:11:50.039Z,10.02
2023-01-19T23:14:22.097Z,11.27
2023-01-19T23:16:50.545Z,10.02
2023-01-19T23:19:20.599Z,10.18
2023-01-19T23:21:52.247Z,9.35
2023-01-19T23:24:20.514Z,9.95
2023-01-19T23:26:50.330Z,9.18
2023-01-19T23:29:19.594Z,9.82
2023-01-19T23:31:49.864Z,9.50
2023-01-19T23:34:19.463Z,10.38
2023-01-19T23:36:47.730Z,9.63
2023-01-19T23:39:19.844Z,10.05
2023-01-19T23:41:49.140Z,9.98
2023-01-19T23:44:18.196Z,13.45
2023-01-19T23:46:47.057Z,16.17
2023-01-19T23:49:15.327Z,16.60
2023-01-19T23:51:45.033Z,15.10
2023-01-19T23:54:13.377Z,11.18
2023-01-19T23:56:42.585Z,11.63
2023-01-19T23:59:12.974Z,9.80
